createdAt,value
2019-01-16T00:00:20.742Z,12.70
2019-01-16T00:02:58.258Z,12.23
2019-01-16T00:05:38.469Z,10.57
2019-01-16T00:08:29.473Z,10.73
2019-01-16T00:11:23.706Z,10.77
2019-01-16T00:14:10.849Z,11.70
2019-01-16T00:16:57.781Z,9.60
2019-01-16T00:19:37.521Z,9.83
2019-01-16T00:22:23.164Z,10.80
2019-01-16T00:25:11.374Z,9.27
2019-01-16T00:27:58.062Z,10.10
2019-01-16T00:30:46.833Z,9.27
2019-01-16T00:33:33.832Z,9.10
2019-01-16T00:36:11.895Z,9.83
2019-01-16T00:39:08.925Z,8.40
2019-01-16T00:41:55.914Z,7.87
2019-01-16T00:44:46.785Z,8.80
2019-01-16T00:47:27.716Z,8.30
2019-01-16T00:50:18.637Z,8.27
2019-01-16T00:53:06.822Z,8.13
2019-01-16T00:55:57.890Z,7.90
2019-01-16T00:58:34.560Z,7.90
2019-01-16T01:01:23.017Z,7.20
2019-01-16T01:04:09.285Z,7.93
2019-01-16T01:07:00.565Z,8.10
2019-01-16T01:09:45.365Z,7.47
2019-01-16T01:12:36.798Z,6.83
2019-01-16T01:15:21.487Z,7.80
2019-01-16T01:18:15.431Z,8.57
2019-01-16T01:21:09.595Z,7.63
2019-01-16T01:23:57.771Z,7.60
2019-01-16T01:26:53.940Z,8.63
2019-01-16T01:29:34.567Z,8.97
2019-01-16T01:32:37.915Z,10.37
2019-01-16T01:35:33.792Z,9.50
2019-01-16T01:38:25.491Z,8.43
2019-01-16T01:41:12.729Z,9.27
2019-01-16T01:44:04.988Z,9.30
2019-01-16T01:46:46.773Z,8.93
2019-01-16T01:49:33.593Z,9.47
2019-01-16T01:52:33.976Z,8.30
2019-01-16T01:55:40.218Z,9.30
2019-01-16T01:58:28.532Z,8.70
2019-01-16T02:01:12.052Z,8.90
2019-01-16T02:03:59.408Z,9.27
2019-01-16T02:06:46.561Z,9.53
2019-01-16T02:09:37.600Z,9.37
2019-01-16T02:12:34.244Z,10.60
2019-01-16T02:15:25.531Z,9.77
2019-01-16T02:18:21.180Z,11.93
2019-01-16T02:21:09.971Z,10.30
2019-01-16T02:23:48.538Z,10.83
2019-01-16T02:26:35.534Z,11.77
2019-01-16T02:29:23.240Z,11.87
2019-01-16T02:32:10.066Z,10.63
2019-01-16T02:35:00.932Z,11.63
2019-01-16T02:37:51.759Z,11.37
2019-01-16T02:40:39.826Z,11.37
2019-01-16T02:43:26.944Z,11.40
2019-01-16T02:46:17.757Z,11.83
2019-01-16T02:49:05.837Z,11.97
2019-01-16T02:51:54.832Z,12.63
2019-01-16T02:54:41.644Z,12.80
2019-01-16T02:57:20.454Z,12.63
2019-01-16T02:59:55.035Z,14.30
2019-01-16T03:02:42.302Z,14.00
2019-01-16T03:05:29.361Z,13.67
2019-01-16T03:08:19.785Z,15.50
2019-01-16T03:11:16.945Z,14.23
2019-01-16T03:14:13.973Z,16.50
2019-01-16T03:17:14.236Z,16.63
2019-01-16T03:19:55.988Z,16.33
2019-01-16T03:22:50.730Z,15.10
2019-01-16T03:25:45.307Z,14.57
2019-01-16T03:28:45.630Z,19.57
2019-01-16T03:31:42.765Z,16.53
2019-01-16T03:34:25.744Z,18.00
2019-01-16T03:37:26.046Z,18.00
2019-01-16T03:40:13.190Z,17.37
2019-01-16T03:42:57.723Z,18.57
2019-01-16T03:45:54.562Z,19.17
2019-01-16T03:49:01.040Z,17.23
2019-01-16T03:52:07.453Z,19.77
2019-01-16T03:54:55.555Z,19.50
2019-01-16T03:57:42.435Z,23.90
2019-01-16T04:00:29.663Z,19.67
2019-01-16T04:03:23.374Z,22.73
2019-01-16T04:06:10.479Z,21.80
2019-01-16T04:09:01.726Z,20.50
2019-01-16T04:12:02.155Z,24.00
2019-01-16T04:14:53.191Z,24.43
2019-01-16T04:17:47.552Z,23.87
2019-01-16T04:20:34.703Z,22.87
2019-01-16T04:23:13.402Z,22.13
2019-01-16T04:26:08.879Z,24.40
2019-01-16T04:29:00.091Z,24.07
2019-01-16T04:31:35.107Z,23.03
2019-01-16T04:34:14.990Z,27.50
2019-01-16T04:37:01.960Z,26.37
2019-01-16T04:39:59.808Z,25.10
2019-01-16T04:42:55.797Z,25.53
2019-01-16T04:45:56.296Z,25.27
2019-01-16T04:48:40.362Z,26.30
2019-01-16T04:51:28.460Z,25.80
2019-01-16T04:54:28.529Z,22.63
2019-01-16T04:57:34.667Z,20.37
2019-01-16T05:00:12.127Z,20.50
2019-01-16T05:03:03.130Z,21.73
2019-01-16T05:06:09.743Z,23.47
2019-01-16T05:09:04.009Z,22.27
2019-01-16T05:11:50.919Z,22.30
2019-01-16T05:14:34.535Z,19.00
2019-01-16T05:17:25.805Z,20.40
2019-01-16T05:20:12.801Z,19.13
2019-01-16T05:22:52.864Z,18.27
2019-01-16T05:25:50.160Z,17.63
2019-01-16T05:28:38.336Z,20.20
2019-01-16T05:31:30.344Z,17.43
2019-01-16T05:34:18.760Z,15.80
2019-01-16T05:37:13.982Z,17.20
2019-01-16T05:40:00.999Z,16.53
2019-01-16T05:42:37.230Z,12.83
2019-01-16T05:45:31.793Z,13.13
2019-01-16T05:48:28.524Z,15.40
2019-01-16T05:51:15.530Z,13.13
2019-01-16T05:53:56.074Z,13.63
2019-01-16T05:56:53.376Z,14.60
2019-01-16T05:59:56.833Z,12.73
2019-01-16T06:02:53.678Z,14.27
2019-01-16T06:05:48.413Z,13.20
2019-01-16T06:08:33.024Z,14.73
2019-01-16T06:11:20.041Z,13.50
2019-01-16T06:14:17.620Z,14.73
2019-01-16T06:16:56.521Z,15.17
2019-01-16T06:19:37.009Z,17.40
2019-01-16T06:22:28.074Z,16.33
2019-01-16T06:25:16.110Z,16.57
2019-01-16T06:28:03.779Z,16.20
2019-01-16T06:30:48.246Z,18.97
2019-01-16T06:33:29.744Z,15.93
2019-01-16T06:36:19.772Z,20.63
2019-01-16T06:39:11.097Z,19.37
2019-01-16T06:42:05.680Z,15.87
2019-01-16T06:44:54.372Z,16.70
2019-01-16T06:47:47.892Z,18.03
2019-01-16T06:50:35.352Z,15.60
2019-01-16T06:53:23.551Z,18.10
2019-01-16T06:56:15.486Z,18.67
2019-01-16T06:59:03.023Z,18.50
2019-01-16T07:01:51.116Z,18.67
2019-01-16T07:04:48.623Z,17.37
2019-01-16T07:07:42.964Z,17.67
2019-01-16T07:10:43.578Z,17.53
2019-01-16T07:13:34.878Z,17.53
2019-01-16T07:16:26.222Z,18.27
2019-01-16T07:19:13.253Z,18.87
2019-01-16T07:22:07.472Z,17.47
2019-01-16T07:25:07.800Z,20.43
2019-01-16T07:27:58.362Z,19.07
2019-01-16T07:30:40.012Z,19.07
2019-01-16T07:33:20.173Z,17.20
2019-01-16T07:36:08.727Z,17.43
2019-01-16T07:39:02.802Z,16.57
2019-01-16T07:41:57.885Z,17.27
2019-01-16T07:44:44.650Z,17.07
2019-01-16T07:47:28.250Z,17.07
2019-01-16T07:50:17.329Z,15.30
2019-01-16T07:53:10.551Z,13.87
2019-01-16T07:55:59.368Z,16.20
2019-01-16T07:58:54.516Z,16.63
2019-01-16T08:01:51.803Z,15.73
2019-01-16T08:04:48.628Z,14.07
2019-01-16T08:07:39.874Z,14.67
2019-01-16T08:10:38.574Z,14.73
2019-01-16T08:13:25.724Z,13.67
2019-01-16T08:16:12.731Z,13.73
2019-01-16T08:19:13.027Z,14.80
2019-01-16T08:22:00.111Z,13.63
2019-01-16T08:24:48.430Z,16.13
2019-01-16T08:27:54.948Z,15.50
2019-01-16T08:30:58.485Z,14.70
2019-01-16T08:33:42.720Z,12.87
2019-01-16T08:36:29.435Z,13.87
2019-01-16T08:39:18.426Z,12.83
2019-01-16T08:42:08.978Z,14.27
2019-01-16T08:45:04.485Z,16.63
2019-01-16T08:47:58.086Z,11.97
2019-01-16T08:50:43.814Z,14.03
2019-01-16T08:53:41.063Z,17.53
2019-01-16T08:56:29.271Z,13.40
2019-01-16T08:59:17.313Z,13.20
2019-01-16T09:02:09.975Z,12.80
2019-01-16T09:04:57.156Z,14.40
2019-01-16T09:08:00.710Z,12.00
2019-01-16T09:10:49.603Z,15.17
2019-01-16T09:13:36.654Z,12.83
2019-01-16T09:16:31.153Z,12.07
2019-01-16T09:19:25.482Z,14.00
2019-01-16T09:22:25.874Z,12.57
2019-01-16T09:25:14.004Z,11.93
2019-01-16T09:28:00.759Z,14.17
2019-01-16T09:30:47.542Z,15.40
2019-01-16T09:33:34.820Z,11.50
2019-01-16T09:36:11.783Z,11.53
2019-01-16T09:39:12.021Z,11.43
2019-01-16T09:42:14.407Z,9.83
2019-01-16T09:45:05.715Z,9.97
2019-01-16T09:47:45.401Z,10.87
2019-01-16T09:50:30.924Z,10.63
2019-01-16T09:53:12.034Z,10.97
2019-01-16T09:55:59.101Z,9.57
2019-01-16T09:58:59.380Z,9.73
2019-01-16T10:01:56.992Z,10.13
2019-01-16T10:04:43.910Z,10.53
2019-01-16T10:07:20.509Z,12.13
2019-01-16T10:10:00.865Z,12.00
2019-01-16T10:12:48.969Z,10.87
2019-01-16T10:15:48.115Z,9.13
2019-01-16T10:18:37.186Z,7.80
2019-01-16T10:21:24.719Z,7.73
2019-01-16T10:24:18.704Z,7.33
2019-01-16T10:27:10.299Z,12.43
2019-01-16T10:30:09.617Z,16.30
2019-01-16T10:32:57.897Z,9.47
2019-01-16T10:35:48.969Z,7.40
2019-01-16T10:38:49.219Z,8.33
2019-01-16T10:41:37.568Z,7.57
2019-01-16T10:44:31.777Z,8.63
2019-01-16T10:47:18.881Z,8.03
2019-01-16T10:50:09.929Z,7.07
2019-01-16T10:53:04.145Z,7.63
2019-01-16T10:55:43.951Z,6.93
2019-01-16T10:58:30.761Z,7.57
2019-01-16T11:01:19.134Z,10.20
2019-01-16T11:04:01.236Z,8.97
2019-01-16T11:06:41.749Z,14.83
2019-01-16T11:09:28.895Z,9.00
2019-01-16T11:12:16.185Z,8.57
2019-01-16T11:15:07.305Z,7.27
2019-01-16T11:17:55.959Z,7.47
2019-01-16T11:20:37.410Z,7.30
2019-01-16T11:23:24.075Z,7.90
2019-01-16T11:26:36.145Z,8.27
2019-01-16T11:29:38.537Z,6.70
2019-01-16T11:32:25.561Z,7.03
2019-01-16T11:35:12.728Z,7.77
2019-01-16T11:38:06.583Z,7.77
2019-01-16T11:40:53.796Z,6.70
2019-01-16T11:43:41.937Z,6.40
2019-01-16T11:46:45.335Z,10.23
2019-01-16T11:49:32.459Z,10.70
2019-01-16T11:52:19.564Z,7.00
2019-01-16T11:55:25.827Z,6.13
2019-01-16T11:58:06.225Z,6.10
2019-01-16T12:01:10.257Z,5.87
2019-01-16T12:04:00.152Z,5.57
2019-01-16T12:07:03.459Z,5.77
2019-01-16T12:09:50.594Z,6.47
2019-01-16T12:12:37.638Z,5.10
2019-01-16T12:15:45.078Z,5.30
2019-01-16T12:18:34.737Z,4.70
2019-01-16T12:21:38.036Z,5.20
2019-01-16T12:24:27.907Z,7.50
2019-01-16T12:27:15.530Z,8.60
2019-01-16T12:30:06.712Z,5.50
2019-01-16T12:32:57.975Z,5.30
2019-01-16T12:35:44.787Z,5.23
2019-01-16T12:38:22.008Z,5.37
2019-01-16T12:41:08.948Z,4.53
2019-01-16T12:43:51.454Z,4.50
2019-01-16T12:46:38.239Z,5.77
2019-01-16T12:49:24.406Z,10.63
2019-01-16T12:52:00.716Z,6.90
2019-01-16T12:54:47.330Z,4.17
2019-01-16T12:57:34.709Z,4.03
2019-01-16T13:00:29.555Z,4.73
2019-01-16T13:03:08.495Z,5.40
2019-01-16T13:05:51.872Z,5.03
2019-01-16T13:08:41.025Z,4.27
2019-01-16T13:11:27.942Z,8.97
2019-01-16T13:14:30.117Z,4.97
2019-01-16T13:17:15.803Z,4.70
2019-01-16T13:20:02.312Z,7.37
2019-01-16T13:22:46.004Z,8.70
2019-01-16T13:25:41.373Z,4.37
2019-01-16T13:28:35.808Z,4.07
2019-01-16T13:31:22.362Z,4.40
2019-01-16T13:34:09.318Z,4.03
2019-01-16T13:36:45.867Z,4.77
2019-01-16T13:39:46.088Z,3.37
2019-01-16T13:42:52.893Z,3.87
2019-01-16T13:45:39.812Z,4.13
2019-01-16T13:48:32.452Z,3.57
2019-01-16T13:51:25.184Z,4.03
2019-01-16T13:54:05.395Z,4.00
2019-01-16T13:57:02.888Z,3.83
2019-01-16T13:59:50.158Z,3.80
2019-01-16T14:02:37.036Z,3.70
2019-01-16T14:05:26.546Z,5.50
2019-01-16T14:08:14.684Z,4.77
2019-01-16T14:11:06.105Z,3.63
2019-01-16T14:14:00.478Z,3.93
2019-01-16T14:16:47.672Z,3.27
2019-01-16T14:19:24.936Z,5.40
2019-01-16T14:22:22.147Z,3.50
2019-01-16T14:25:11.194Z,3.47
2019-01-16T14:28:23.707Z,3.93
2019-01-16T14:31:15.165Z,6.30
2019-01-16T14:34:05.624Z,3.97
2019-01-16T14:37:00.015Z,4.30
2019-01-16T14:39:54.237Z,3.63
2019-01-16T14:42:43.782Z,3.40
2019-01-16T14:45:27.941Z,4.13
2019-01-16T14:48:34.191Z,4.00
2019-01-16T14:51:21.498Z,3.50
2019-01-16T14:54:11.427Z,3.17
2019-01-16T14:57:11.171Z,3.00
2019-01-16T15:00:17.036Z,3.43
2019-01-16T15:03:03.576Z,4.77
2019-01-16T15:05:53.152Z,3.53
2019-01-16T15:08:40.846Z,4.03
2019-01-16T15:11:27.326Z,3.97
2019-01-16T15:14:09.955Z,4.10
2019-01-16T15:17:00.869Z,3.97
2019-01-16T15:19:53.066Z,4.47
2019-01-16T15:22:36.963Z,5.63
2019-01-16T15:25:20.291Z,5.33
2019-01-16T15:27:58.563Z,3.77
2019-01-16T15:30:37.899Z,5.80
2019-01-16T15:33:19.490Z,3.73
2019-01-16T15:36:06.549Z,4.20
2019-01-16T15:39:13.020Z,3.97
2019-01-16T15:41:55.277Z,4.57
2019-01-16T15:44:41.869Z,5.97
2019-01-16T15:47:28.970Z,6.87
2019-01-16T15:50:29.687Z,4.43
2019-01-16T15:53:17.863Z,7.60
2019-01-16T15:56:04.746Z,5.87
2019-01-16T15:58:59.115Z,3.63
2019-01-16T16:01:46.194Z,4.27
2019-01-16T16:04:34.895Z,4.57
2019-01-16T16:07:22.214Z,4.57
2019-01-16T16:10:20.042Z,4.47
2019-01-16T16:13:11.148Z,3.90
2019-01-16T16:16:08.653Z,4.87
2019-01-16T16:18:58.839Z,4.57
2019-01-16T16:21:53.138Z,5.20
2019-01-16T16:24:56.696Z,4.33
2019-01-16T16:27:51.039Z,4.83
2019-01-16T16:30:38.120Z,4.87
2019-01-16T16:33:41.590Z,5.83
2019-01-16T16:36:31.160Z,5.27
2019-01-16T16:39:18.044Z,4.77
2019-01-16T16:41:59.491Z,4.10
2019-01-16T16:44:55.036Z,4.87
2019-01-16T16:47:42.048Z,3.90
2019-01-16T16:50:20.421Z,6.00
2019-01-16T16:53:11.866Z,4.73
2019-01-16T16:55:58.973Z,4.70
2019-01-16T16:58:55.756Z,6.33
2019-01-16T17:01:42.620Z,9.43
2019-01-16T17:04:32.176Z,30.13
2019-01-16T17:07:15.826Z,8.97
2019-01-16T17:10:16.147Z,7.67
2019-01-16T17:13:08.510Z,5.07
2019-01-16T17:16:04.591Z,5.00
2019-01-16T17:18:51.293Z,5.53
2019-01-16T17:21:38.413Z,5.60
2019-01-16T17:24:13.743Z,5.03
2019-01-16T17:27:01.974Z,5.30
2019-01-16T17:29:40.801Z,5.53
2019-01-16T17:32:29.069Z,5.77
2019-01-16T17:35:20.418Z,5.20
2019-01-16T17:38:26.806Z,7.63
2019-01-16T17:41:18.120Z,6.07
2019-01-16T17:43:57.359Z,7.27
2019-01-16T17:46:58.993Z,6.60
2019-01-16T17:50:02.243Z,6.90
2019-01-16T17:52:49.004Z,8.33
2019-01-16T17:55:30.782Z,7.33
2019-01-16T17:58:18.303Z,6.97
2019-01-16T18:01:06.674Z,6.57
2019-01-16T18:03:56.494Z,7.20
2019-01-16T18:06:43.548Z,5.90
2019-01-16T18:09:22.744Z,5.87
2019-01-16T18:12:09.629Z,7.10
2019-01-16T18:14:53.539Z,6.07
2019-01-16T18:17:44.571Z,7.70
2019-01-16T18:20:32.403Z,5.67
2019-01-16T18:23:21.009Z,6.67
2019-01-16T18:26:04.597Z,8.03
2019-01-16T18:28:50.839Z,5.47
2019-01-16T18:31:42.829Z,7.30
2019-01-16T18:34:30.831Z,6.80
2019-01-16T18:37:22.085Z,13.30
2019-01-16T18:40:19.528Z,11.67
2019-01-16T18:43:06.815Z,9.47
2019-01-16T18:46:04.590Z,7.47
2019-01-16T18:48:51.647Z,7.50
2019-01-16T18:51:45.969Z,6.87
2019-01-16T18:54:46.424Z,7.90
2019-01-16T18:57:28.367Z,7.40
2019-01-16T19:00:31.773Z,8.67
2019-01-16T19:03:19.968Z,11.00
2019-01-16T19:06:16.871Z,9.87
2019-01-16T19:09:05.888Z,9.37
2019-01-16T19:11:57.307Z,6.40
2019-01-16T19:14:45.486Z,7.00
2019-01-16T19:17:33.266Z,7.23
2019-01-16T19:20:20.400Z,12.30
2019-01-16T19:23:07.499Z,9.50
2019-01-16T19:25:55.801Z,8.33
2019-01-16T19:28:42.592Z,7.33
2019-01-16T19:31:29.693Z,7.47
2019-01-16T19:34:20.354Z,7.70
2019-01-16T19:37:10.779Z,13.87
2019-01-16T19:40:18.316Z,21.03
2019-01-16T19:43:18.763Z,15.60
2019-01-16T19:46:12.384Z,11.13
2019-01-16T19:49:15.737Z,9.87
2019-01-16T19:52:04.483Z,7.50
2019-01-16T19:54:51.872Z,8.53
2019-01-16T19:57:39.442Z,8.60
2019-01-16T20:00:26.565Z,9.30
2019-01-16T20:03:14.398Z,7.20
2019-01-16T20:06:02.728Z,8.27
2019-01-16T20:08:44.813Z,8.53
2019-01-16T20:11:36.275Z,12.00
2019-01-16T20:14:25.066Z,12.40
2019-01-16T20:17:14.669Z,7.87
2019-01-16T20:20:08.740Z,7.73
2019-01-16T20:23:11.141Z,17.13
2019-01-16T20:26:12.087Z,9.57
2019-01-16T20:28:59.088Z,7.50
2019-01-16T20:31:58.783Z,9.03
2019-01-16T20:34:46.332Z,8.10
2019-01-16T20:37:46.933Z,7.90
2019-01-16T20:40:44.480Z,8.37
2019-01-16T20:43:31.246Z,9.80
2019-01-16T20:46:18.396Z,9.50
2019-01-16T20:49:03.235Z,15.43
2019-01-16T20:51:48.339Z,15.97
2019-01-16T20:54:35.295Z,7.83
2019-01-16T20:57:31.746Z,9.70
2019-01-16T21:00:33.787Z,7.93
2019-01-16T21:03:25.524Z,8.53
2019-01-16T21:06:12.876Z,12.07
2019-01-16T21:08:53.577Z,19.50
2019-01-16T21:11:42.187Z,10.90
2019-01-16T21:14:34.605Z,9.03
2019-01-16T21:17:18.145Z,10.17
2019-01-16T21:20:06.495Z,10.13
2019-01-16T21:22:53.909Z,10.83
2019-01-16T21:25:33.929Z,7.23
2019-01-16T21:28:21.121Z,12.47
2019-01-16T21:31:12.318Z,14.47
2019-01-16T21:34:06.147Z,10.83
2019-01-16T21:37:12.497Z,12.67
2019-01-16T21:40:03.748Z,8.73
2019-01-16T21:42:44.171Z,8.73
2019-01-16T21:45:31.578Z,9.23
2019-01-16T21:48:38.249Z,7.63
2019-01-16T21:51:22.732Z,10.60
2019-01-16T21:54:17.260Z,9.37
2019-01-16T21:57:21.709Z,10.07
2019-01-16T22:00:25.276Z,11.20
2019-01-16T22:03:05.943Z,10.10
2019-01-16T22:05:49.606Z,11.57
2019-01-16T22:08:39.313Z,12.30
2019-01-16T22:11:17.862Z,9.73
2019-01-16T22:14:08.870Z,11.47
2019-01-16T22:17:04.312Z,9.47
2019-01-16T22:19:48.104Z,9.27
2019-01-16T22:22:36.002Z,10.20
2019-01-16T22:25:27.594Z,9.50
2019-01-16T22:28:24.663Z,9.17
2019-01-16T22:31:19.436Z,10.80
2019-01-16T22:34:06.043Z,12.23
2019-01-16T22:36:58.099Z,14.30
2019-01-16T22:39:59.614Z,16.20
2019-01-16T22:42:49.206Z,12.03
2019-01-16T22:45:36.895Z,10.63
2019-01-16T22:48:23.148Z,9.83
2019-01-16T22:51:19.182Z,10.90
2019-01-16T22:54:05.937Z,11.97
2019-01-16T22:56:51.278Z,10.20
2019-01-16T22:59:55.090Z,9.33
2019-01-16T23:02:49.706Z,9.33
2019-01-16T23:05:40.571Z,8.70
2019-01-16T23:08:21.379Z,11.23
2019-01-16T23:11:09.583Z,9.20
2019-01-16T23:13:48.372Z,10.00
2019-01-16T23:16:37.373Z,10.17
2019-01-16T23:19:17.775Z,12.87
2019-01-16T23:22:12.049Z,10.43
2019-01-16T23:24:49.784Z,11.50
2019-01-16T23:27:26.804Z,11.73
2019-01-16T23:30:10.286Z,12.03
2019-01-16T23:33:01.511Z,9.47
2019-01-16T23:35:49.733Z,9.73
2019-01-16T23:38:56.105Z,8.43
2019-01-16T23:41:47.415Z,10.33
2019-01-16T23:44:35.524Z,8.87
2019-01-16T23:47:12.421Z,8.40
2019-01-16T23:50:09.580Z,9.33
2019-01-16T23:53:09.816Z,11.93
2019-01-16T23:56:03.950Z,8.63
2019-01-16T23:58:43.127Z,10.93
